Time;durP1;ratioP1;P1;durP2;ratioP2;P2;SDS_P1;SDS_P2;PMS_P1;PMS_P2;Temp;Humidity;BMP_temperature;BMP_pressure;BME280_temperature;BME280_humidity;BME280_pressure;Samples;Min_cycle;Max_cycle;Signal;HPM_P1;HPM_P2
2022/05/05 00:00:34;;;;;;;;;;;9.10;1.40;;;9.99;100.00;95457.66;655068;216;24833;-74
2022/05/05 00:03:43;;;;;;;;;;;;;;;;;;;;;
2022/05/05 00:06:46;;;;;;;;;;;9.10;1.40;;;9.98;100.00;95458.11;642046;220;25459;-74
2022/05/05 00:09:33;;;;;;;;;;;9.10;1.40;;;9.98;100.00;95461.95;643993;216;24869;-74
2022/05/05 00:15:05;;;;;;;;;;;9.20;1.40;;;10.10;100.00;95462.84;654101;212;24821;-75
2022/05/05 00:17:45;;;;;;;;;;;9.30;1.40;;;10.12;100.00;95464.85;653286;216;24926;-75
2022/05/05 00:20:33;;;;;;;;;;;9.30;1.40;;;10.17;100.00;95460.24;653310;216;24825;-73
2022/05/05 00:23:14;;;;;;;;;;;9.40;1.40;;;10.21;100.00;95456.01;653507;212;25369;-73
2022/05/05 00:25:58;;;;;;;;;;;9.40;1.40;;;10.23;100.00;95457.41;653914;212;24822;-76
2022/05/05 00:28:46;;;;;;;;;;;9.50;1.40;;;10.24;100.00;95456.54;653410;216;24728;-73
2022/05/05 00:31:27;;;;;;;;;;;9.40;1.40;;;10.25;100.00;95449.91;652944;212;24846;-73
2022/05/05 00:35:51;;;;;;;1.60;0.70;;;9.40;1.40;;;10.26;100.00;95444.30;646670;212;31542;-73
2022/05/05 00:38:32;;;;;;;2.27;1.10;;;9.40;1.40;;;10.30;100.00;95444.82;645833;212;31665;-73
2022/05/05 00:41:14;;;;;;;0.80;0.80;;;9.40;1.40;;;10.28;100.00;95444.85;647069;212;31525;-74
2022/05/05 00:43:59;;;;;;;1.70;0.90;;;9.40;1.40;;;10.29;100.00;95447.77;646852;216;31775;-74
2022/05/05 00:46:40;;;;;;;0.80;0.70;;;9.40;1.40;;;10.26;100.00;95448.57;646237;212;31600;-74
2022/05/05 00:49:22;;;;;;;1.10;0.90;;;9.40;1.40;;;10.26;100.00;95450.03;618844;222;31837;-73
2022/05/05 00:52:06;;;;;;;0.60;0.60;;;9.50;1.40;;;10.27;100.00;95450.39;646450;216;31598;-75
2022/05/05 00:54:48;;;;;;;1.00;0.70;;;9.50;1.40;;;10.29;100.00;95453.02;647149;212;31538;-75
2022/05/05 00:57:37;;;;;;;1.00;0.50;;;9.50;1.40;;;10.35;100.00;95451.33;645426;212;31598;-73
2022/05/05 01:00:17;;;;;;;0.70;0.50;;;9.50;1.40;;;10.36;100.00;95449.25;646817;216;31481;-73
2022/05/05 01:03:02;;;;;;;0.50;0.50;;;9.50;1.40;;;10.37;100.00;95446.56;646690;216;31547;-73
2022/05/05 01:05:44;;;;;;;0.70;0.60;;;9.40;1.40;;;10.38;100.00;95443.30;645951;216;31564;-73
2022/05/05 01:08:26;;;;;;;0.60;0.53;;;9.50;1.40;;;10.40;100.00;95443.47;642614;216;31683;-73
2022/05/05 01:11:07;;;;;;;1.20;0.70;;;9.50;1.40;;;10.36;100.00;95447.56;646254;216;31518;-73
2022/05/05 01:13:49;;;;;;;2.20;0.80;;;9.50;1.40;;;10.37;100.00;95439.80;619803;226;31908;-73
2022/05/05 01:16:34;;;;;;;0.73;0.73;;;9.30;1.40;;;10.32;100.00;95435.78;646147;216;31556;-73
2022/05/05 01:19:15;;;;;;;1.27;0.93;;;9.30;1.40;;;10.28;100.00;95441.48;646332;216;31521;-73
2022/05/05 01:21:57;;;;;;;2.10;1.03;;;9.30;1.40;;;10.21;100.00;95442.85;646827;212;31544;-73
2022/05/05 01:30:14;;;;;;;1.23;0.93;;;9.10;1.40;;;10.03;100.00;95447.98;646648;216;31523;-74
2022/05/05 01:32:55;;;;;;;1.47;0.63;;;9.10;1.40;;;10.01;100.00;95445.63;647239;216;31512;-73
2022/05/05 01:35:51;;;;;;;;;;;9.00;1.40;;;9.96;100.00;95446.77;651770;216;25214;-73
2022/05/05 01:38:36;;;;;;;;;;;8.90;1.40;;;9.87;100.00;95448.52;653935;212;24917;-73
2022/05/05 01:41:18;;;;;;;;;;;8.90;1.40;;;9.87;100.00;95450.67;649606;215;24937;-73
2022/05/05 01:44:00;;;;;;;;;;;8.90;1.40;;;9.85;100.00;95450.49;652073;216;24820;-73
2022/05/05 01:46:46;;;;;;;;;;;8.80;1.40;;;9.85;100.00;95456.38;653797;216;24821;-76
2022/05/05 01:49:27;;;;;;;;;;;8.80;1.40;;;9.81;100.00;95455.91;652808;212;24820;-75
2022/05/05 01:52:14;;;;;;;;;;;8.80;1.40;;;9.72;100.00;95452.61;653499;216;25586;-73
2022/05/05 01:54:56;;;;;;;;;;;8.70;1.40;;;9.66;100.00;95451.30;654373;216;24724;-73
2022/05/05 01:57:39;;;;;;;;;;;8.60;1.40;;;9.56;100.00;95448.21;653040;216;24889;-73
2022/05/05 02:00:22;;;;;;;;;;;8.40;1.40;;;9.42;100.00;95446.60;653298;216;24814;-75
2022/05/05 02:03:13;;;;;;;;;;;8.20;1.40;;;9.24;100.00;95449.20;654176;216;25208;-74
2022/05/05 02:05:54;;;;;;;;;;;8.10;1.40;;;9.13;100.00;95450.47;653232;216;24825;-73
2022/05/05 02:08:36;;;;;;;;;;;7.90;1.40;;;9.01;100.00;95451.94;648201;212;24754;-73
2022/05/05 02:11:17;;;;;;;;;;;7.80;1.40;;;9.08;100.00;95459.11;653363;212;25087;-73
2022/05/05 02:13:59;;;;;;;;;;;8.10;1.40;;;9.19;100.00;95458.27;652089;216;24814;-73
2022/05/05 02:16:40;;;;;;;;;;;8.20;1.40;;;9.16;100.00;95458.80;653700;216;24827;-73
2022/05/05 02:19:27;;;;;;;;;;;8.20;1.40;;;9.14;100.00;95459.81;655006;216;25056;-76
2022/05/05 02:22:15;;;;;;;;;;;8.20;1.40;;;9.15;100.00;95461.74;653320;216;25481;-73
2022/05/05 02:24:56;;;;;;;;;;;8.20;1.40;;;9.16;100.00;95460.25;652809;216;24812;-73
2022/05/05 02:27:49;;;;;;;;;;;8.30;1.40;;;9.19;100.00;95460.27;653669;216;24817;-75
2022/05/05 02:30:30;;;;;;;;;;;8.20;1.40;;;9.12;100.00;95460.11;652954;216;25190;-75
2022/05/05 02:38:42;;;;;;;;;;;8.00;1.40;;;9.04;100.00;95464.48;653244;216;24818;-73
2022/05/05 02:41:27;;;;;;;;;;;7.90;1.40;;;8.82;100.00;95457.54;653497;216;24818;-74
2022/05/05 02:44:14;;;;;;;;;;;7.70;1.40;;;8.65;100.00;95460.84;653239;216;25656;-75
2022/05/05 02:46:56;;;;;;;;;;;7.50;1.40;;;8.55;100.00;95453.31;652804;212;24821;-75
2022/05/05 02:49:43;;;;;;;;;;;7.30;1.40;;;8.45;100.00;95453.20;653324;212;24808;-73
2022/05/05 02:52:24;;;;;;;;;;;7.20;1.40;;;8.35;100.00;95456.77;652877;216;24882;-74
2022/05/05 02:55:15;;;;;;;;;;;7.20;1.40;;;8.34;100.00;95461.92;653185;216;24822;-76
2022/05/05 02:58:02;;;;;;;;;;;7.10;1.40;;;8.05;100.00;95470.64;652179;216;24827;-73
2022/05/05 03:00:43;;;;;;;;;;;6.90;1.40;;;7.89;100.00;95470.80;648815;216;24903;-73
2022/05/05 03:03:31;;;;;;;;;;;6.70;1.40;;;7.85;100.00;95471.05;654847;216;24819;-76
2022/05/05 03:06:15;;;;;;;;;;;6.70;1.40;;;7.81;100.00;95474.31;653250;212;24853;-73
2022/05/05 03:08:56;;;;;;;;;;;6.60;1.40;;;7.68;100.00;95481.46;645469;216;24853;-73
2022/05/05 03:11:40;;;;;;;;;;;6.50;1.40;;;7.70;100.00;95481.97;653502;216;24813;-74
2022/05/05 03:14:27;;;;;;;;;;;6.60;1.40;;;7.75;100.00;95473.61;653856;216;24816;-76
2022/05/05 03:17:15;;;;;;;;;;;6.60;1.40;;;7.80;100.00;95475.83;652863;216;24824;-74
2022/05/05 03:20:02;;;;;;;;;;;6.70;1.40;;;7.89;100.00;95471.55;654352;216;24760;-76
2022/05/05 03:22:50;;;;;;;;;;;6.80;1.40;;;7.98;100.00;95472.53;653610;216;24812;-74
2022/05/05 03:25:31;;;;;;;;;;;6.80;1.40;;;8.08;100.00;95468.94;652770;216;24822;-73
2022/05/05 03:28:13;;;;;;;;;;;6.90;1.40;;;8.15;100.00;95465.12;652694;216;24860;-73
2022/05/05 03:30:56;;;;;;;;;;;7.00;1.40;;;8.20;100.00;95466.27;623595;224;24897;-75
2022/05/05 03:36:00;;;;;;;2.17;0.95;;;7.00;1.40;;;8.17;100.00;95456.67;646783;216;31626;-76
2022/05/05 03:38:49;;;;;;;1.60;0.70;;;7.00;1.40;;;8.21;100.00;95461.13;647148;212;31789;-77
2022/05/05 03:41:37;;;;;;;1.40;1.20;;;7.00;1.40;;;8.27;100.00;95464.83;646722;213;31579;-74
2022/05/05 03:44:21;;;;;;;0.57;0.40;;;7.10;1.40;;;8.40;100.00;95477.64;647636;216;31818;-73
2022/05/05 03:47:03;;;;;;;0.80;0.50;;;7.20;1.40;;;8.29;100.00;95482.53;646038;216;31597;-75
2022/05/05 03:49:45;;;;;;;0.80;0.80;;;7.10;1.40;;;8.21;100.00;95478.63;645834;216;32123;-74
2022/05/05 03:52:26;;;;;;;2.10;0.60;;;7.00;1.40;;;8.37;100.00;95475.78;647155;216;32038;-73
2022/05/05 03:55:09;;;;;;;1.57;0.73;;;7.20;1.40;;;8.49;100.00;95471.74;646543;216;32117;-73
2022/05/05 04:00:36;;;;;;;0.90;0.70;;;7.30;1.40;;;8.54;100.00;95480.48;646191;216;32266;-73
2022/05/05 04:06:13;;;;;;;1.00;0.90;;;7.50;1.40;;;8.78;100.00;95486.09;646695;216;31543;-76
2022/05/05 04:08:59;;;;;;;0.90;0.90;;;7.50;1.40;;;8.64;100.00;95496.32;639041;216;31738;-74
2022/05/05 04:11:44;;;;;;;1.93;0.97;;;7.50;1.40;;;8.62;100.00;95498.45;645584;216;31489;-73
2022/05/05 04:14:25;;;;;;;0.70;0.70;;;7.40;1.40;;;8.59;100.00;95502.81;646868;216;31644;-73
2022/05/05 04:17:10;;;;;;;0.80;0.52;;;7.40;1.40;;;8.48;100.00;95498.88;646684;216;35502;-73
2022/05/05 04:19:52;;;;;;;0.73;0.73;;;7.40;1.40;;;8.61;100.00;95499.49;646813;216;31505;-73
2022/05/05 04:22:36;;;;;;;1.00;0.90;;;7.50;1.40;;;8.73;100.00;95499.27;647595;216;32192;-75
2022/05/05 04:25:23;;;;;;;3.10;1.50;;;7.70;1.40;;;8.88;100.00;95492.22;647009;212;32022;-73
2022/05/05 04:28:11;;;;;;;1.52;1.17;;;7.80;1.40;;;8.94;100.00;95496.00;646184;216;31590;-75
2022/05/05 04:30:59;;;;;;;1.30;1.10;;;7.90;1.40;;;8.98;100.00;95491.83;646738;216;31584;-73
2022/05/05 04:35:54;;;;;;;0.90;0.70;;;8.00;1.40;;;9.02;100.00;95490.64;645619;216;31562;-74
2022/05/05 04:38:36;;;;;;;1.20;0.70;;;8.00;1.40;;;9.15;100.00;95493.00;645593;216;31548;-73
2022/05/05 04:41:18;;;;;;;0.70;0.70;;;7.90;1.40;;;9.20;100.00;95495.30;646508;212;31531;-73
2022/05/05 04:44:00;;;;;;;0.65;0.60;;;7.90;1.40;;;9.17;100.00;95501.52;646517;216;31561;-74
2022/05/05 04:46:44;;;;;;;0.50;0.50;;;7.90;1.40;;;9.16;100.00;95494.40;646944;216;31517;-73
2022/05/05 04:49:26;;;;;;;1.45;0.90;;;8.00;1.40;;;9.15;100.00;95490.89;645777;212;43064;-74
2022/05/05 04:52:08;;;;;;;0.70;0.50;;;8.00;1.40;;;9.10;100.00;95499.38;645285;216;31667;-74
2022/05/05 04:54:49;;;;;;;0.60;0.50;;;8.00;1.40;;;9.12;100.00;95495.00;646793;212;31773;-73
2022/05/05 04:57:35;;;;;;;0.80;0.52;;;8.10;1.40;;;9.10;100.00;95497.44;647493;216;32085;-74
2022/05/05 05:00:17;;;;;;;1.20;0.50;;;8.10;1.40;;;9.16;100.00;95493.54;646767;216;31663;-75
2022/05/05 05:02:59;;;;;;;0.90;0.60;;;8.10;1.40;;;9.14;100.00;95491.19;647342;212;31681;-73
2022/05/05 05:05:40;;;;;;;1.20;0.50;;;8.10;1.40;;;9.27;100.00;95496.93;645991;216;31825;-75
2022/05/05 05:08:25;;;;;;;0.40;0.30;;;8.20;1.40;;;9.35;100.00;95499.41;642972;216;31675;-73
2022/05/05 05:13:41;;;;;;;1.30;0.60;;;8.40;1.40;;;9.41;100.00;95511.60;644924;216;31968;-72
2022/05/05 05:16:26;;;;;;;1.60;1.30;;;8.50;1.40;;;9.56;100.00;95510.52;646126;216;32141;-73
2022/05/05 05:19:08;;;;;;;2.70;0.60;;;8.70;1.40;;;9.90;100.00;95512.63;645658;216;31684;-73
2022/05/05 05:21:50;;;;;;;2.10;0.70;;;9.00;1.40;;;10.02;100.00;95509.70;646369;216;31550;-72
2022/05/05 05:24:31;;;;;;;1.00;0.90;;;9.20;1.40;;;10.19;100.00;95506.05;646754;216;31545;-73
2022/05/05 05:27:13;;;;;;;0.80;0.60;;;9.30;1.40;;;10.42;100.00;95505.30;647546;216;31506;-73
2022/05/05 05:29:55;;;;;;;1.10;0.80;;;9.50;1.40;;;10.65;100.00;95506.75;647172;216;31566;-74
2022/05/05 05:32:37;;;;;;;0.90;0.90;;;9.60;1.40;;;10.70;100.00;95508.15;647705;212;31482;-73
2022/05/05 05:35:54;;;;;;;1.12;0.80;;;9.80;1.40;;;10.97;100.00;95505.06;642973;216;42167;-72
2022/05/05 05:38:35;;;;;;;2.10;0.87;;;10.00;1.40;;;11.16;100.00;95511.72;646540;212;31495;-72
2022/05/05 05:43:51;;;;;;;1.30;1.00;;;10.40;1.40;;;11.60;100.00;95517.29;645563;212;37125;-73
2022/05/05 05:46:33;;;;;;;1.23;0.70;;;10.70;1.40;;;11.67;100.00;95518.47;646398;216;31575;-72
2022/05/05 05:49:15;;;;;;;2.80;1.30;;;10.80;1.40;;;11.74;100.00;95524.68;646536;216;42141;-73
2022/05/05 05:51:57;;;;;;;0.88;0.60;;;10.90;1.40;;;11.85;100.00;95526.28;646128;216;42122;-72
2022/05/05 05:54:43;;;;;;;3.30;1.20;;;10.90;1.40;;;12.02;100.00;95532.61;648904;215;32634;-73
2022/05/05 05:57:25;;;;;;;1.17;1.08;;;11.00;1.40;;;12.32;100.00;95536.99;647569;216;31558;-73
2022/05/05 06:00:10;;;;;;;1.40;1.00;;;11.30;1.40;;;12.39;100.00;95537.23;644771;216;32153;-72
2022/05/05 06:05:39;;;;;;;1.73;0.80;;;11.50;1.40;;;12.86;100.00;95535.88;646789;216;32414;-73
2022/05/05 06:08:24;;;;;;;2.58;1.40;;;11.60;1.40;;;13.23;100.00;95539.08;641587;216;31722;-73
2022/05/05 06:11:05;;;;;;;1.70;1.10;;;12.00;1.40;;;13.45;100.00;95543.86;647142;216;32501;-72
2022/05/05 06:13:50;;;;;;;1.60;1.42;;;12.10;1.40;;;13.94;100.00;95540.03;646744;212;32204;-73
2022/05/05 06:16:32;;;;;;;2.00;1.50;;;12.30;1.40;;;13.82;100.00;95537.62;646178;216;39901;-72
2022/05/05 06:19:13;;;;;;;2.30;1.67;;;12.30;1.40;;;13.88;100.00;95538.35;646402;216;31690;-73
2022/05/05 06:21:56;;;;;;;1.47;1.17;;;12.20;1.40;;;14.07;100.00;95535.21;647262;213;31601;-73
2022/05/05 06:24:37;;;;;;;1.00;0.90;;;12.30;1.40;;;13.95;100.00;95540.04;619642;226;40948;-73
2022/05/05 06:27:19;;;;;;;1.95;1.48;;;12.30;1.40;;;14.01;100.00;95551.73;646268;212;31585;-72
2022/05/05 06:30:01;;;;;;;2.65;1.50;;;12.30;1.40;;;13.44;100.00;95558.88;644877;216;31564;-73
2022/05/05 06:32:43;;;;;;;2.00;1.45;;;11.90;1.40;;;13.35;100.00;95565.50;645344;212;43014;-73
2022/05/05 06:35:51;;;;;;;2.58;1.87;;;11.60;1.40;;;13.03;100.00;95563.91;618458;226;32289;-72
2022/05/05 06:38:33;;;;;;;1.45;1.20;;;11.40;1.40;;;12.98;100.00;95559.23;646266;212;31583;-73
2022/05/05 06:41:17;;;;;;;1.80;1.20;;;11.50;1.40;;;13.16;100.00;95553.34;646207;212;42177;-73
2022/05/05 06:43:58;;;;;;;1.87;1.77;;;11.60;1.40;;;13.15;100.00;95562.36;646521;216;43287;-73
2022/05/05 06:46:40;;;;;;;1.90;1.15;;;11.60;1.40;;;13.34;100.00;95566.73;645573;216;32174;-73
2022/05/05 06:49:22;;;;;;;4.73;1.47;;;11.70;1.40;;;13.41;100.00;95566.11;646819;216;31557;-73
2022/05/05 06:52:04;;;;;;;2.60;1.65;;;11.80;1.40;;;13.38;100.00;95571.31;645730;214;42373;-72
2022/05/05 06:54:46;;;;;;;2.05;1.95;;;12.00;1.40;;;13.70;100.00;95569.05;645943;212;32451;-73
2022/05/05 06:57:28;;;;;;;3.17;2.20;;;12.30;1.40;;;13.43;100.00;95575.35;646455;216;32198;-74
2022/05/05 07:00:12;;;;;;;1.50;1.40;;;12.20;1.40;;;13.78;100.00;95579.37;646651;216;31722;-73
2022/05/05 07:02:53;;;;;;;2.10;1.98;;;12.30;1.40;;;13.97;100.00;95583.83;646328;216;31764;-73
2022/05/05 07:05:36;;;;;;;2.67;2.00;;;12.40;1.40;;;13.99;100.00;95586.03;646414;216;31609;-73
2022/05/05 07:08:17;;;;;;;1.70;1.50;;;12.40;1.40;;;14.25;100.00;95587.65;643669;216;31758;-73
2022/05/05 07:11:01;;;;;;;2.37;1.20;;;12.60;1.40;;;14.19;100.00;95586.59;646884;216;31578;-73
2022/05/05 07:13:40;;;;;;;2.45;2.25;;;12.80;1.40;;;14.38;100.00;95596.49;647407;216;31543;-73
2022/05/05 07:16:22;;;;;;;1.50;1.40;;;13.10;1.40;;;14.75;100.00;95606.15;646499;216;31588;-73
2022/05/05 07:19:04;;;;;;;2.72;2.30;;;13.70;1.40;;;15.44;100.00;95609.59;646105;216;31563;-73
2022/05/05 07:21:45;;;;;;;3.45;2.00;;;14.20;1.40;;;15.68;100.00;95608.64;646133;216;31543;-74
2022/05/05 07:24:31;;;;;;;2.47;2.28;;;14.30;1.40;;;16.05;100.00;95611.07;646205;212;32099;-73
2022/05/05 07:27:12;;;;;;;2.47;2.28;;;14.40;1.40;;;16.15;100.00;95616.70;646888;216;31595;-73
2022/05/05 07:29:57;;;;;;;2.00;1.80;;;14.40;1.40;;;16.24;100.00;95622.91;645644;212;31667;-73
2022/05/05 07:32:40;;;;;;;2.53;2.05;;;14.60;1.40;;;16.84;100.00;95617.34;646557;212;31563;-74
2022/05/05 07:35:51;;;;;;;2.58;2.17;;;14.80;1.40;;;17.45;100.00;95624.42;618961;225;31946;-73
2022/05/05 07:38:33;;;;;;;1.92;1.73;;;15.20;1.40;;;18.08;100.00;95630.18;646042;216;31733;-74
2022/05/05 07:41:14;;;;;;;3.97;2.33;;;15.60;1.40;;;17.48;100.00;95637.89;645756;216;32186;-74
2022/05/05 07:44:00;;;;;;;3.10;1.87;;;15.30;1.40;;;17.37;100.00;95633.28;645669;216;31647;-73
2022/05/05 07:46:41;;;;;;;1.80;1.52;;;15.10;1.40;;;18.09;100.00;95628.29;645251;216;31524;-74
2022/05/05 07:49:22;;;;;;;4.20;2.05;;;15.50;1.40;;;18.57;100.00;95622.59;645923;216;31535;-74
2022/05/05 07:52:04;;;;;;;1.80;1.67;;;15.80;1.40;;;18.51;100.00;95627.19;646556;216;31557;-74
2022/05/05 07:54:46;;;;;;;2.97;2.77;;;15.80;1.40;;;18.74;100.00;95630.66;645825;216;31528;-74
2022/05/05 07:57:31;;;;;;;4.25;3.08;;;16.00;1.40;;;18.00;100.00;95637.10;645968;213;31861;-74
2022/05/05 08:00:13;;;;;;;2.45;2.25;;;15.50;1.40;;;17.43;100.00;95631.03;647027;216;31587;-73
2022/05/05 08:02:55;;;;;;;3.57;2.30;;;15.00;1.40;;;17.61;100.00;95629.68;646338;212;31569;-74
2022/05/05 08:05:37;;;;;;;3.15;2.40;;;15.20;1.40;;;17.84;100.00;95628.29;646857;212;31651;-73
2022/05/05 08:08:19;;;;;;;5.15;2.80;;;15.50;1.40;;;17.99;100.00;95626.44;644207;212;31692;-73
2022/05/05 08:11:00;;;;;;;4.10;2.30;;;15.50;1.40;;;17.77;100.00;95628.08;646828;216;31514;-73
2022/05/05 08:13:42;;;;;;;2.22;2.03;;;15.60;1.40;;;17.28;100.00;95636.34;645673;215;31582;-73
2022/05/05 08:16:24;;;;;;;1.98;1.87;;;15.50;1.40;;;17.41;100.00;95637.44;647007;216;31533;-73
2022/05/05 08:19:06;;;;;;;2.90;2.20;;;15.80;1.40;;;17.85;100.00;95636.36;645609;216;31521;-73
2022/05/05 08:21:47;;;;;;;2.35;1.90;;;15.90;1.40;;;17.36;100.00;95632.13;647076;212;31552;-73
2022/05/05 08:30:09;;;;;;;1.92;1.70;;;15.70;1.40;;;17.84;100.00;95631.91;619021;226;31841;-73
2022/05/05 08:32:50;;;;;;;2.87;1.80;;;16.00;1.40;;;17.93;100.00;95632.82;646520;216;32069;-74
2022/05/05 08:35:55;;;;;;;2.10;1.95;;;15.90;1.40;;;17.96;100.00;95638.44;645130;213;31985;-73
2022/05/05 08:38:37;;;;;;;2.30;1.93;;;15.90;1.40;;;17.87;100.00;95640.80;646604;216;31753;-73
2022/05/05 08:41:19;;;;;;;2.90;2.00;;;15.90;1.40;;;17.90;100.00;95647.04;646465;216;31565;-73
2022/05/05 08:44:00;;;;;;;2.62;2.05;;;16.40;1.40;;;19.16;100.00;95639.66;646254;216;31514;-73
2022/05/05 08:46:45;;;;;;;3.22;2.50;;;17.20;1.40;;;19.47;100.00;95639.72;645971;212;31593;-73
2022/05/05 08:49:27;;;;;;;2.83;2.28;;;17.50;1.40;;;20.13;100.00;95639.00;645421;216;32146;-73
2022/05/05 08:52:08;;;;;;;2.55;2.00;;;18.00;1.40;;;20.45;100.00;95638.80;645476;216;31568;-73
2022/05/05 08:54:53;;;;;;;3.15;2.10;;;18.20;1.40;;;20.37;98.17;95634.63;646683;216;42190;-74
2022/05/05 08:57:35;;;;;;;2.50;2.10;;;18.10;1.40;;;20.95;100.00;95634.61;618740;226;31879;-73
2022/05/05 09:00:17;;;;;;;2.45;2.25;;;18.60;1.40;;;21.56;100.00;95631.41;645424;216;31890;-73
2022/05/05 09:03:00;;;;;;;2.20;1.62;;;19.80;1.40;;;20.75;83.83;95636.05;646972;216;31623;-73
2022/05/05 09:05:47;;;;;;;2.20;2.00;;;19.40;1.40;;;21.23;84.92;95641.07;646170;216;32142;-74
2022/05/05 09:08:29;;;;;;;1.52;1.42;;;19.40;1.40;;;22.40;85.38;95645.44;641742;216;31744;-75
2022/05/05 09:11:11;;;;;;;3.17;2.33;;;19.30;1.40;;;21.16;77.67;95645.02;646288;216;31544;-73
2022/05/05 09:13:52;;;;;;;3.30;2.45;;;18.40;1.40;;;20.17;90.19;95644.61;645690;216;31775;-74
2022/05/05 09:16:34;;;;;;;2.30;2.10;;;18.20;1.40;;;21.15;82.98;95638.36;645760;216;31649;-74
2022/05/05 09:19:16;;;;;;;3.72;2.30;;;18.40;1.40;;;22.25;86.29;95642.92;646148;216;31632;-74
2022/05/05 09:21:57;;;;;;;3.67;2.97;;;19.00;1.40;;;23.44;81.84;95634.89;645381;216;31563;-73
2022/05/05 09:24:40;;;;;;;2.35;2.00;;;20.50;1.40;;;24.20;82.71;95623.64;646932;216;31574;-73
2022/05/05 09:27:27;;;;;;;3.30;2.70;;;21.40;1.40;;;23.75;69.05;95625.39;646455;216;31740;-74
2022/05/05 09:30:12;;;;;;;2.40;2.20;;;21.80;1.40;;;23.95;70.44;95627.97;646282;216;31644;-74
2022/05/05 09:32:53;;;;;;;3.95;2.58;;;22.40;1.40;;;25.00;71.13;95624.84;645606;216;32007;-74
2022/05/05 09:35:57;;;;;;;2.70;2.50;;;23.40;1.40;;;24.41;59.60;95627.20;645803;216;31709;-74
2022/05/05 09:38:56;;;;;;;3.90;2.60;;;22.30;1.40;;;25.55;61.69;95624.27;646629;216;31533;-74
2022/05/05 09:41:44;;;;;;;3.25;2.45;;;20.80;1.40;;;23.91;61.26;95628.27;645842;216;31548;-74
2022/05/05 09:44:29;;;;;;;3.40;3.10;;;20.30;1.40;;;25.83;69.56;95622.73;632477;221;31690;-74
2022/05/05 09:47:16;;;;;;;3.00;2.70;;;22.80;1.40;;;26.11;56.88;95620.05;646898;215;31569;-74
2022/05/05 09:50:01;;;;;;;3.25;2.70;;;22.10;1.40;;;26.68;64.60;95627.12;646127;216;42191;-74
2022/05/05 09:58:19;;;;;;;2.65;2.45;;;21.60;1.40;;;24.80;57.96;95629.89;646656;216;31585;-74
2022/05/05 10:01:00;;;;;;;2.62;2.00;;;21.50;1.40;;;25.40;64.89;95625.30;646587;212;31576;-72
2022/05/05 10:06:34;;;;;;;3.42;2.25;;;25.20;1.40;;;29.41;51.30;95617.13;645904;213;31720;-73
2022/05/05 10:09:16;;;;;;;3.17;2.60;;;26.40;1.40;;;28.53;44.39;95614.59;637569;216;32105;-74
2022/05/05 10:11:57;;;;;;;2.62;2.42;;;25.20;1.40;;;29.92;46.10;95615.28;646372;216;31777;-74
2022/05/05 10:14:39;;;;;;;2.60;2.40;;;24.50;1.40;;;29.65;45.50;95614.99;647102;212;31535;-73
2022/05/05 10:17:21;;;;;;;3.75;2.30;;;24.30;1.40;;;29.09;44.02;95613.06;646753;212;31568;-75
2022/05/05 10:20:04;;;;;;;3.70;2.60;;;24.00;1.40;;;29.37;43.25;95610.37;645697;212;34543;-75
2022/05/05 10:22:50;;;;;;;2.28;2.08;;;25.40;1.40;;;30.77;41.70;95603.54;646133;212;31655;-73
2022/05/05 10:25:33;;;;;;;2.78;2.30;;;27.20;1.40;;;31.82;38.91;95597.78;646103;216;31849;-74
2022/05/05 10:28:38;;;;;;;2.70;2.30;;;27.90;1.40;;;31.93;40.50;95595.23;647067;213;31747;-74
2022/05/05 10:31:47;;;;;;;2.40;2.03;;;28.40;1.40;;;32.66;37.13;95596.20;646228;216;31577;-73
2022/05/05 10:35:51;;;;;;;2.70;2.50;;;28.40;1.40;;;33.37;35.08;95585.94;646927;216;34567;-72
2022/05/05 10:38:40;;;;;;;2.50;2.30;;;27.70;1.40;;;32.75;38.04;95592.20;645761;216;42258;-73
2022/05/05 10:41:35;;;;;;;3.10;2.10;;;26.70;1.40;;;31.95;36.94;95601.33;646789;216;31843;-73
2022/05/05 10:44:22;;;;;;;2.80;2.60;;;25.40;1.40;;;31.92;38.87;95594.36;646994;216;31639;-73
2022/05/05 10:49:46;;;;;;;2.53;2.22;;;25.20;1.40;;;30.32;37.05;95596.11;646298;216;31605;-74
2022/05/05 10:52:31;;;;;;;2.42;2.22;;;25.10;1.40;;;30.57;35.78;95584.54;646827;212;31622;-75
2022/05/05 10:55:21;;;;;;;2.05;1.90;;;24.50;1.40;;;28.15;37.17;95588.50;645466;216;31692;-73
2022/05/05 10:58:03;;;;;;;3.58;1.80;;;23.00;1.40;;;29.68;39.94;95584.34;619357;222;31918;-74
2022/05/05 11:00:44;;;;;;;1.70;1.60;;;24.20;1.40;;;32.48;37.44;95581.25;646596;216;31583;-72
2022/05/05 11:03:26;;;;;;;2.25;2.05;;;27.70;1.40;;;34.05;34.80;95571.44;646566;216;31552;-73
2022/05/05 11:06:16;;;;;;;3.72;2.47;;;27.40;1.40;;;29.53;37.80;95580.95;618878;226;43290;-73
2022/05/05 11:08:57;;;;;;;2.05;1.92;;;26.30;1.40;;;34.93;33.47;95569.26;639246;216;43080;-72
2022/05/05 11:11:41;;;;;;;3.70;2.45;;;27.60;1.40;;;33.82;35.64;95568.73;645504;216;31778;-73
2022/05/05 11:23:21;;;;;;;2.15;1.95;;;25.30;1.40;;;34.48;33.51;95556.17;646657;212;32010;-73
2022/05/05 11:26:02;;;;;;;1.90;1.70;;;27.00;1.40;;;33.44;31.71;95556.63;646368;216;31820;-73
2022/05/05 11:28:45;;;;;;;1.60;1.50;;;27.60;1.40;;;35.37;32.50;95547.46;646338;216;31639;-75
2022/05/05 11:31:27;;;;;;;2.10;1.90;;;28.10;1.40;;;33.78;30.61;95549.80;619121;226;32040;-73
2022/05/05 11:35:56;;;;;;;2.30;2.10;;;26.10;1.40;;;31.81;34.96;95553.58;645857;216;31611;-74
2022/05/05 11:38:37;;;;;;;3.03;2.33;;;25.20;1.40;;;34.12;32.42;95544.23;646000;216;31558;-72
2022/05/05 11:41:19;;;;;;;2.42;2.20;;;26.90;1.40;;;31.99;32.26;95546.08;646908;216;31569;-73
2022/05/05 11:46:47;;;;;;;2.42;1.80;;;27.70;1.40;;;35.37;31.16;95528.56;646541;216;32181;-75
2022/05/05 11:49:35;;;;;;;2.08;1.60;;;27.90;1.40;;;35.41;31.08;95528.13;646243;216;31651;-73
2022/05/05 11:52:20;;;;;;;1.80;1.40;;;27.90;1.40;;;35.96;30.85;95523.38;647522;216;31783;-73
2022/05/05 11:55:05;;;;;;;4.87;1.80;;;28.30;1.40;;;30.31;35.80;95528.05;646251;216;31598;-73
2022/05/05 11:57:49;;;;;;;2.53;1.75;;;25.80;1.40;;;31.90;33.12;95520.23;645704;216;31591;-73
2022/05/05 12:03:20;;;;;;;1.90;1.62;;;26.80;1.40;;;33.01;33.00;95505.09;646966;216;31626;-74
2022/05/05 12:06:03;;;;;;;3.00;1.60;;;27.00;1.40;;;34.87;28.88;95503.40;646212;216;31796;-74
2022/05/05 12:08:44;;;;;;;2.40;2.20;;;26.80;1.40;;;35.10;28.84;95504.70;613970;222;32010;-73
2022/05/05 12:11:27;;;;;;;1.60;1.50;;;26.50;1.40;;;33.76;30.57;95495.81;645356;216;31695;-73
2022/05/05 12:14:11;;;;;;;1.60;1.50;;;25.70;1.40;;;30.57;32.10;95501.12;647047;212;31658;-73
2022/05/05 12:16:51;;;;;;;1.52;1.40;;;25.30;1.40;;;31.86;34.16;95496.53;646256;216;31749;-73
2022/05/05 12:19:32;;;;;;;1.92;1.50;;;25.40;1.40;;;31.05;35.81;95494.42;646756;216;31605;-73
2022/05/05 12:22:14;;;;;;;2.30;2.10;;;25.60;1.40;;;32.93;32.59;95489.38;646157;216;31600;-73
2022/05/05 12:25:02;;;;;;;2.30;2.10;;;26.10;1.40;;;33.32;32.95;95482.67;645577;213;32522;-72
2022/05/05 12:27:45;;;;;;;3.53;2.90;;;26.30;1.40;;;31.88;33.08;95487.27;645190;216;31616;-73
2022/05/05 12:30:40;;;;;;;3.70;2.70;;;25.70;1.40;;;32.37;34.31;95485.11;647124;216;31581;-73
2022/05/05 12:35:52;;;;;;;2.28;2.08;;;25.10;1.40;;;31.72;34.72;95486.39;646402;216;31736;-75
2022/05/05 12:38:34;;;;;;;1.80;1.70;;;24.50;1.40;;;32.12;34.83;95475.97;646320;216;31689;-72
2022/05/05 12:41:15;;;;;;;3.15;2.10;;;24.90;1.40;;;31.50;34.88;95479.25;618265;225;32434;-73
2022/05/05 12:44:17;;;;;;;2.22;2.03;;;25.40;1.40;;;32.44;34.63;95480.46;646418;216;31577;-73
2022/05/05 12:46:57;;;;;;;2.70;2.50;;;25.40;1.40;;;31.59;33.51;95482.26;646411;216;31484;-72
2022/05/05 12:49:38;;;;;;;2.28;2.00;;;24.70;1.40;;;30.77;34.75;95485.25;647073;216;31608;-72
2022/05/05 13:00:43;;;;;;;2.40;2.20;;;24.40;1.40;;;27.21;41.37;95487.30;647576;216;31652;-72
2022/05/05 13:03:24;;;;;;;2.37;2.00;;;22.60;1.40;;;28.08;39.82;95484.88;645756;216;31548;-72
2022/05/05 13:06:06;;;;;;;2.72;2.53;;;23.00;1.40;;;28.47;37.63;95476.60;646265;216;42713;-72
2022/05/05 13:08:48;;;;;;;2.83;2.22;;;23.30;1.40;;;28.79;37.35;95470.95;641348;216;31716;-75